Terminal Aerodrome Forecast
Issued by NWS

Home | Current Version | Previous Version | Graphics & Text | Print | Product List | Glossary On
Versions: 1 2 3 4 5 6 7 8 9 10 11 12 13 14
000
FTUS43 KABR 182320
TAFMBG
TAF
KMBG 182320Z 1900/1924 03011KT P6SM OVC250
     FM190300 03005KT P6SM SCT250
     FM191500 17004KT P6SM FEW150
     FM191900 17008KT P6SM FEW200=

USA.gov is the U.S. government's official web portal to all federal, state and local government web resources and services.